Terminal Aerodrome Forecast
Issued by NWS

Home | Current Version | Previous Version | Text Only | Print | Product List | Glossary On
Versions: 1 2 3 4 5 6 7 8 9 10 11 12 13 14
024
FTUS43 KMPX 172330
TAFRNH
TAF
KRNH 172330Z 1800/1824 28007KT P6SM FEW250
     FM180800 12005KT P6SM BKN100
     FM181500 14013G20KT P6SM SCT025 OVC080 WS020/19055KT
     FM182000 18012G18KT P6SM SCT025 OVC080=

USA.gov is the U.S. government's official web portal to all federal, state and local government web resources and services.